createdAt,value
2019-04-23T00:02:03.740Z,9.53
2019-04-23T00:07:09.244Z,11.17
2019-04-23T00:12:00.388Z,9.83
2019-04-23T00:16:59.208Z,10.00
2019-04-23T00:21:52.142Z,12.53
2019-04-23T00:26:51.578Z,12.10
2019-04-23T00:31:44.513Z,11.90
2019-04-23T00:46:35.275Z,10.13
2019-04-23T00:51:37.968Z,9.90
2019-04-23T00:56:49.610Z,10.47
2019-04-23T01:01:36.817Z,9.60
2019-04-23T01:06:23.654Z,9.40
2019-04-23T01:16:17.263Z,10.30
2019-04-23T01:21:00.956Z,10.87
2019-04-23T01:26:15.702Z,9.70
2019-04-23T01:36:25.604Z,9.00
2019-04-23T01:41:13.394Z,10.07
2019-04-23T01:46:07.926Z,10.93
2019-04-23T01:50:57.518Z,9.97
2019-04-23T01:56:03.167Z,10.20
2019-04-23T02:05:55.716Z,11.37
2019-04-23T02:10:56.287Z,10.47
2019-04-23T02:15:47.722Z,10.60
2019-04-23T02:20:47.265Z,9.37
2019-04-23T02:30:57.832Z,11.83
2019-04-23T02:35:52.400Z,10.50
2019-04-23T02:40:53.406Z,12.33
2019-04-23T02:45:49.838Z,12.57
2019-04-23T03:05:36.662Z,11.87
2019-04-23T03:20:35.075Z,13.00
2019-04-23T03:25:31.149Z,12.27
2019-04-23T03:36:14.057Z,11.97
2019-04-23T03:40:13.824Z,13.80
2019-04-23T03:50:15.339Z,14.70
2019-04-23T03:55:12.635Z,13.37
2019-04-23T04:00:22.861Z,15.70
2019-04-23T04:05:02.652Z,14.17
2019-04-23T04:09:51.782Z,14.27
2019-04-23T04:19:49.761Z,12.97
2019-04-23T04:29:47.178Z,12.37
2019-04-23T04:39:42.799Z,13.93
2019-04-23T04:49:36.530Z,11.30
2019-04-23T05:04:24.376Z,14.70
2019-04-23T05:24:21.862Z,13.43
2019-04-23T05:34:02.550Z,11.27
2019-04-23T05:38:58.337Z,8.83
2019-04-23T05:43:59.521Z,10.50
2019-04-23T05:49:00.238Z,9.90
2019-04-23T05:53:50.965Z,10.07
2019-04-23T05:58:52.915Z,9.40
2019-04-23T06:03:49.104Z,9.73
2019-04-23T06:08:46.035Z,9.77
2019-04-23T06:13:46.242Z,8.77
2019-04-23T06:18:38.900Z,10.40
2019-04-23T06:23:46.234Z,10.20
2019-04-23T06:28:33.106Z,8.70
2019-04-23T06:33:32.394Z,8.20
2019-04-23T06:38:46.148Z,9.97
2019-04-23T06:43:40.826Z,11.03
2019-04-23T06:48:34.431Z,8.70
2019-04-23T06:53:33.775Z,7.87
2019-04-23T07:03:36.066Z,11.30
2019-04-23T07:08:26.196Z,9.83
2019-04-23T07:13:20.597Z,6.43
2019-04-23T07:18:10.070Z,13.40
2019-04-23T07:23:13.463Z,13.23
2019-04-23T07:28:06.897Z,14.67
2019-04-23T07:32:57.171Z,8.47
2019-04-23T07:42:56.592Z,5.23
2019-04-23T07:48:13.697Z,7.93
2019-04-23T07:53:13.282Z,8.00
2019-04-23T07:58:06.713Z,13.67
2019-04-23T08:03:08.596Z,9.23
2019-04-23T08:07:57.414Z,8.10
2019-04-23T08:12:55.495Z,11.77
2019-04-23T08:17:41.556Z,9.43
2019-04-23T08:22:45.387Z,7.00
2019-04-23T08:27:48.680Z,13.57
2019-04-23T08:32:51.211Z,9.80
2019-04-23T08:37:54.176Z,11.80
2019-04-23T08:42:46.749Z,6.03
2019-04-23T08:47:32.039Z,11.73
2019-04-23T08:52:32.628Z,12.10
2019-04-23T09:02:35.644Z,11.07
2019-04-23T09:12:32.021Z,11.80
2019-04-23T09:17:23.193Z,13.23
2019-04-23T09:22:25.146Z,11.50
2019-04-23T09:27:18.188Z,9.73
2019-04-23T09:37:20.121Z,5.97
2019-04-23T09:42:22.072Z,9.23
2019-04-23T09:47:14.308Z,8.10
2019-04-23T09:52:17.574Z,7.43
2019-04-23T09:57:04.583Z,10.43
2019-04-23T10:01:49.787Z,8.43
2019-04-23T10:06:33.391Z,9.07
2019-04-23T10:11:26.161Z,11.80
2019-04-23T10:16:23.316Z,7.73
2019-04-23T10:21:17.518Z,8.47
2019-04-23T10:26:14.127Z,20.97
2019-04-23T10:31:09.042Z,11.43
2019-04-23T10:36:10.967Z,13.27
2019-04-23T10:41:02.268Z,13.17
2019-04-23T10:46:26.330Z,12.87
2019-04-23T10:51:33.801Z,9.07
2019-04-23T10:56:36.121Z,10.50
2019-04-23T11:01:31.536Z,8.73
2019-04-23T11:11:25.629Z,15.53
2019-04-23T11:16:45.966Z,12.00
2019-04-23T11:21:26.465Z,19.30
2019-04-23T11:26:14.175Z,8.57
2019-04-23T11:31:20.050Z,8.97
2019-04-23T11:36:35.222Z,13.40
2019-04-23T11:41:00.551Z,9.87
2019-04-23T11:46:06.264Z,12.50
2019-04-23T11:51:29.689Z,14.97
2019-04-23T11:55:51.709Z,14.27
2019-04-23T12:01:11.459Z,10.20
2019-04-23T12:06:36.663Z,8.87
2019-04-23T12:11:39.442Z,10.27
2019-04-23T12:16:20.438Z,12.77
2019-04-23T12:26:19.777Z,12.70
2019-04-23T12:31:16.194Z,14.30
2019-04-23T12:36:42.093Z,12.60
2019-04-23T12:41:21.079Z,10.43
2019-04-23T12:46:26.039Z,10.27
2019-04-23T12:51:28.309Z,8.90
2019-04-23T12:56:21.273Z,12.70
2019-04-23T13:01:05.515Z,13.23
2019-04-23T13:06:01.781Z,12.77
2019-04-23T13:11:23.614Z,10.63
2019-04-23T13:16:02.659Z,9.60
2019-04-23T13:20:58.726Z,13.60
2019-04-23T13:25:57.202Z,11.40
2019-04-23T13:30:59.075Z,9.57
2019-04-23T13:36:17.506Z,13.40
2019-04-23T13:41:01.236Z,14.03
2019-04-23T13:55:42.555Z,16.87
2019-04-23T14:06:08.523Z,16.10
2019-04-23T14:10:46.199Z,16.03
2019-04-23T14:15:53.984Z,21.40
2019-04-23T14:20:40.449Z,14.53
2019-04-23T14:25:57.281Z,19.53
2019-04-23T14:35:40.642Z,21.27
2019-04-23T14:46:00.228Z,18.50
2019-04-23T14:55:53.112Z,21.87
2019-04-23T15:00:41.609Z,16.50
2019-04-23T15:10:41.672Z,16.77
2019-04-23T15:15:36.181Z,16.20
2019-04-23T15:20:41.681Z,13.60
2019-04-23T15:25:53.064Z,23.40
2019-04-23T15:30:32.397Z,23.83
2019-04-23T15:35:55.518Z,25.20
2019-04-23T15:40:30.246Z,15.53
2019-04-23T15:45:21.047Z,25.43
2019-04-23T15:50:24.603Z,17.50
2019-04-23T15:55:12.308Z,17.13
2019-04-23T16:00:13.246Z,13.33
2019-04-23T16:04:41.058Z,18.13
2019-04-23T16:10:12.636Z,13.73
2019-04-23T16:15:02.455Z,9.80
2019-04-23T16:20:08.720Z,15.97
2019-04-23T16:25:03.656Z,11.13
2019-04-23T16:34:50.692Z,8.07
2019-04-23T16:39:55.918Z,11.57
2019-04-23T16:45:01.260Z,11.70
2019-04-23T16:49:50.853Z,11.20
2019-04-23T16:54:53.757Z,10.47
2019-04-23T17:00:07.385Z,18.93
2019-04-23T17:09:42.730Z,11.33
2019-04-23T17:14:25.901Z,7.47
2019-04-23T17:24:21.188Z,6.70
2019-04-23T17:29:16.086Z,28.70
2019-04-23T17:34:21.743Z,9.73
2019-04-23T17:39:08.108Z,8.93
2019-04-23T17:49:11.212Z,10.00
2019-04-23T18:13:50.447Z,10.93
2019-04-23T18:18:56.536Z,5.37
2019-04-23T18:24:10.402Z,5.30
2019-04-23T18:29:00.307Z,11.90
2019-04-23T18:34:08.644Z,5.97
2019-04-23T18:38:55.104Z,5.97
2019-04-23T18:58:50.561Z,4.10
2019-04-23T19:03:48.191Z,4.77
2019-04-23T19:08:52.947Z,5.03
2019-04-23T19:13:39.878Z,4.53
2019-04-23T19:18:36.042Z,3.53
2019-04-23T19:23:32.557Z,2.80
2019-04-23T19:33:25.120Z,2.97
2019-04-23T19:38:17.779Z,4.63
2019-04-23T19:43:11.972Z,2.93
2019-04-23T19:48:09.356Z,7.00
2019-04-23T19:53:14.360Z,3.23
2019-04-23T19:58:10.091Z,2.83
2019-04-23T20:03:13.741Z,4.33
2019-04-23T20:08:04.562Z,5.40
2019-04-23T20:13:00.810Z,3.63
2019-04-23T20:17:42.705Z,4.40
2019-04-23T20:22:48.568Z,5.17
2019-04-23T20:27:47.077Z,4.73
2019-04-23T20:42:43.752Z,5.10
2019-04-23T20:47:37.183Z,17.73
2019-04-23T20:52:22.751Z,5.40
2019-04-23T21:12:54.017Z,6.57
2019-04-23T21:17:46.790Z,6.20
2019-04-23T21:32:35.155Z,7.87
2019-04-23T21:37:43.361Z,7.47
2019-04-23T21:42:44.343Z,7.03
2019-04-23T21:52:30.384Z,9.93
2019-04-23T21:57:27.847Z,9.10
2019-04-23T22:02:38.282Z,11.00
2019-04-23T22:07:20.803Z,10.77
2019-04-23T22:12:13.567Z,10.87
2019-04-23T22:17:09.836Z,11.60
2019-04-23T22:21:55.853Z,12.20
2019-04-23T22:26:53.422Z,12.33
2019-04-23T22:31:54.963Z,12.60
2019-04-23T22:37:24.206Z,13.13
2019-04-23T22:42:08.805Z,12.57
2019-04-23T22:51:55.253Z,15.07
2019-04-23T23:06:53.224Z,15.60
2019-04-23T23:11:43.047Z,15.93
2019-04-23T23:16:35.968Z,16.00
2019-04-23T23:21:29.149Z,16.40
2019-04-23T23:26:35.436Z,16.60
2019-04-23T23:31:24.741Z,16.30
2019-04-23T23:36:32.047Z,15.77
2019-04-23T23:41:20.771Z,16.87
2019-04-23T23:46:20.817Z,16.80
2019-04-23T23:51:23.312Z,17.63
2019-04-23T23:56:11.239Z,17.37
